createdAt,value
2023-03-02T00:02:11.482Z,25.90
2023-03-02T00:04:53.280Z,24.38
2023-03-02T00:07:31.907Z,27.05
2023-03-02T00:09:59.289Z,25.10
2023-03-02T00:12:32.437Z,25.88
2023-03-02T00:14:59.462Z,29.77
2023-03-02T00:17:28.977Z,26.73
2023-03-02T00:20:11.554Z,30.10
2023-03-02T00:22:41.492Z,23.42
2023-03-02T00:25:09.991Z,27.60
2023-03-02T00:27:36.934Z,27.63
2023-03-02T00:30:05.321Z,25.70
2023-03-02T00:32:32.408Z,27.98
2023-03-02T00:35:00.334Z,27.50
2023-03-02T00:37:27.399Z,26.85
2023-03-02T00:39:54.500Z,24.50
2023-03-02T00:42:22.260Z,27.17
2023-03-02T00:44:49.155Z,27.48
2023-03-02T00:47:16.057Z,30.70
2023-03-02T00:49:49.511Z,28.15
2023-03-02T00:52:17.245Z,30.15
2023-03-02T00:54:51.853Z,27.35
2023-03-02T00:57:18.847Z,32.33
2023-03-02T00:59:46.449Z,30.58
2023-03-02T01:02:25.098Z,29.00
2023-03-02T01:04:53.331Z,26.90
2023-03-02T01:07:22.293Z,27.38
2023-03-02T01:09:49.283Z,28.70
2023-03-02T01:12:16.303Z,32.10
2023-03-02T01:14:48.292Z,29.00
2023-03-02T01:17:16.340Z,28.25
2023-03-02T01:19:44.333Z,29.55
2023-03-02T01:22:11.489Z,29.58
2023-03-02T01:24:38.397Z,31.58
2023-03-02T01:27:05.524Z,31.52
2023-03-02T01:29:32.443Z,29.65
2023-03-02T01:32:00.198Z,29.75
2023-03-02T01:34:27.475Z,30.55
2023-03-02T01:36:55.048Z,30.23
2023-03-02T01:39:22.580Z,30.90
2023-03-02T01:41:52.820Z,29.40
2023-03-02T01:44:48.109Z,30.02
2023-03-02T01:47:25.415Z,30.88
2023-03-02T01:50:21.562Z,29.65
2023-03-02T01:52:50.953Z,32.65
2023-03-02T01:55:31.577Z,27.50
2023-03-02T01:58:02.377Z,26.02
2023-03-02T02:00:34.695Z,32.17
2023-03-02T02:03:21.061Z,30.02
2023-03-02T02:06:26.240Z,29.13
2023-03-02T02:08:57.429Z,30.67
2023-03-02T02:11:25.697Z,32.50
2023-03-02T02:13:58.539Z,31.55
2023-03-02T02:16:32.432Z,31.50
2023-03-02T02:19:01.549Z,33.67
2023-03-02T02:21:29.576Z,33.22
2023-03-02T02:24:12.597Z,33.83
2023-03-02T02:26:46.370Z,32.92
2023-03-02T02:29:37.688Z,32.40
2023-03-02T02:32:17.710Z,36.75
2023-03-02T02:35:11.228Z,29.65
2023-03-02T02:37:47.530Z,32.30
2023-03-02T02:40:40.676Z,32.40
2023-03-02T02:43:14.063Z,36.45
2023-03-02T02:45:41.932Z,33.22
2023-03-02T02:48:18.864Z,34.50
2023-03-02T02:50:47.332Z,32.47
2023-03-02T02:53:24.673Z,36.47
2023-03-02T02:55:56.331Z,32.08
2023-03-02T02:58:51.582Z,36.30
2023-03-02T03:01:25.826Z,35.70
2023-03-02T03:04:02.137Z,35.30
2023-03-02T03:06:42.594Z,38.00
2023-03-02T03:09:12.481Z,37.30
2023-03-02T03:11:49.449Z,36.25
2023-03-02T03:14:26.939Z,35.70
2023-03-02T03:16:55.200Z,34.72
2023-03-02T03:19:27.135Z,38.40
2023-03-02T03:21:58.884Z,36.03
2023-03-02T03:24:31.410Z,42.63
2023-03-02T03:27:00.486Z,36.58
2023-03-02T03:29:29.625Z,40.00
2023-03-02T03:32:01.560Z,35.65
2023-03-02T03:34:30.689Z,39.17
2023-03-02T03:37:03.004Z,41.30
2023-03-02T03:39:34.447Z,40.40
2023-03-02T03:42:01.793Z,41.22
2023-03-02T03:44:29.368Z,43.83
2023-03-02T03:46:56.653Z,42.00
2023-03-02T03:49:24.549Z,41.03
2023-03-02T03:51:51.791Z,42.15
2023-03-02T03:54:19.431Z,42.28
2023-03-02T03:56:49.227Z,39.72
2023-03-02T03:59:22.284Z,37.72
2023-03-02T04:01:57.607Z,39.08
2023-03-02T04:04:34.797Z,46.10
2023-03-02T04:07:15.525Z,39.08
2023-03-02T04:09:44.224Z,40.10
2023-03-02T04:12:13.360Z,46.60
2023-03-02T04:14:45.528Z,40.22
2023-03-02T04:17:12.707Z,43.22
2023-03-02T04:19:43.043Z,41.90
2023-03-02T04:22:10.322Z,32.80
2023-03-02T04:24:37.325Z,43.15
2023-03-02T04:27:05.149Z,40.88
2023-03-02T04:29:33.520Z,36.42
2023-03-02T04:32:02.420Z,39.88
2023-03-02T04:34:31.539Z,43.28
2023-03-02T04:36:58.572Z,44.85
2023-03-02T04:39:26.145Z,45.83
2023-03-02T04:41:54.337Z,45.83
2023-03-02T04:44:21.747Z,41.00
2023-03-02T04:46:50.208Z,40.50
2023-03-02T04:49:19.392Z,45.55
2023-03-02T04:51:49.606Z,47.28
2023-03-02T04:54:21.789Z,49.95
2023-03-02T04:56:50.680Z,47.42
2023-03-02T04:59:22.404Z,44.13
2023-03-02T05:01:50.386Z,44.65
2023-03-02T05:04:17.571Z,47.13
2023-03-02T05:06:45.713Z,42.80
2023-03-02T05:09:12.747Z,41.90
2023-03-02T05:11:40.633Z,44.53
2023-03-02T05:14:12.774Z,46.00
2023-03-02T05:16:42.356Z,44.92
2023-03-02T05:19:12.453Z,41.90
2023-03-02T05:21:40.180Z,51.55
2023-03-02T05:24:07.757Z,49.10
2023-03-02T05:26:35.011Z,50.53
2023-03-02T05:29:02.428Z,59.42
2023-03-02T05:31:32.484Z,64.70
2023-03-02T05:33:59.514Z,66.20
2023-03-02T05:36:26.406Z,66.57
2023-03-02T05:38:53.462Z,67.05
2023-03-02T05:41:20.393Z,56.95
2023-03-02T05:43:48.144Z,52.40
2023-03-02T05:46:15.343Z,59.60
2023-03-02T05:48:42.517Z,68.07
2023-03-02T05:51:09.875Z,55.75
2023-03-02T05:53:36.808Z,61.45
2023-03-02T05:56:04.137Z,61.88
2023-03-02T05:58:31.162Z,59.92
2023-03-02T06:00:58.372Z,60.47
2023-03-02T06:03:25.461Z,53.70
2023-03-02T06:05:52.497Z,52.47
2023-03-02T06:08:21.705Z,49.20
2023-03-02T06:10:50.786Z,59.90
2023-03-02T06:13:18.106Z,57.13
2023-03-02T06:15:45.229Z,50.10
2023-03-02T06:18:12.593Z,51.45
2023-03-02T06:20:40.554Z,53.72
2023-03-02T06:23:07.539Z,60.97
2023-03-02T06:25:35.960Z,49.60
2023-03-02T06:28:02.936Z,48.80
2023-03-02T06:30:30.106Z,47.30
2023-03-02T06:32:57.017Z,52.05
2023-03-02T06:35:26.437Z,50.60
2023-03-02T06:37:53.494Z,44.47
2023-03-02T06:40:21.975Z,49.78
2023-03-02T06:42:49.670Z,46.13
2023-03-02T06:45:17.587Z,46.28
2023-03-02T06:47:48.396Z,46.60
2023-03-02T06:50:26.546Z,49.22
2023-03-02T06:53:46.474Z,52.00
2023-03-02T06:56:13.422Z,46.45
2023-03-02T06:58:40.424Z,41.95
2023-03-02T07:01:08.052Z,52.03
2023-03-02T07:03:36.171Z,46.97
2023-03-02T07:06:04.076Z,51.08
2023-03-02T07:08:31.086Z,52.58
2023-03-02T07:11:09.239Z,47.35
2023-03-02T07:13:37.986Z,47.50
2023-03-02T07:16:14.732Z,43.28
2023-03-02T07:18:42.040Z,44.50
2023-03-02T07:21:09.189Z,40.67
2023-03-02T07:31:48.427Z,47.67
2023-03-02T07:48:16.593Z,52.50
2023-03-02T07:51:35.912Z,47.22
2023-03-02T07:54:04.903Z,49.28
2023-03-02T07:56:32.033Z,47.60
2023-03-02T07:58:59.169Z,45.90
2023-03-02T08:01:26.231Z,49.67
2023-03-02T08:03:53.583Z,47.38
2023-03-02T08:06:20.984Z,48.35
2023-03-02T08:08:48.757Z,44.25
2023-03-02T08:11:22.137Z,51.50
2023-03-02T08:13:49.489Z,51.53
2023-03-02T08:16:16.648Z,48.08
2023-03-02T08:18:44.315Z,50.03
2023-03-02T08:21:18.583Z,49.50
2023-03-02T08:23:46.311Z,44.05
2023-03-02T08:26:17.081Z,44.63
2023-03-02T08:28:45.136Z,43.25
2023-03-02T08:31:13.230Z,49.35
2023-03-02T08:33:40.569Z,48.20
2023-03-02T08:36:13.375Z,47.03
2023-03-02T08:38:40.360Z,45.17
2023-03-02T08:41:12.010Z,52.17
2023-03-02T08:43:39.267Z,45.35
2023-03-02T08:46:09.222Z,42.85
2023-03-02T08:48:36.385Z,50.88
2023-03-02T08:51:09.920Z,42.50
2023-03-02T08:53:41.473Z,41.80
2023-03-02T08:56:30.506Z,41.60
2023-03-02T08:59:05.274Z,46.00
2023-03-02T09:01:35.886Z,44.33
2023-03-02T09:04:06.183Z,48.33
2023-03-02T09:06:40.200Z,44.35
2023-03-02T09:09:08.968Z,42.97
2023-03-02T09:11:36.356Z,40.58
2023-03-02T09:14:08.821Z,42.55
2023-03-02T09:16:36.798Z,44.55
2023-03-02T09:19:04.445Z,42.63
2023-03-02T09:21:34.109Z,47.33
2023-03-02T09:24:01.421Z,45.47
2023-03-02T09:26:28.579Z,44.53
2023-03-02T09:28:59.533Z,38.03
2023-03-02T09:31:29.127Z,43.95
2023-03-02T09:33:57.250Z,49.22
2023-03-02T09:36:26.100Z,47.45
2023-03-02T09:38:54.534Z,45.85
2023-03-02T09:41:21.487Z,43.00
2023-03-02T09:44:06.481Z,40.38
2023-03-02T09:46:50.867Z,42.83
2023-03-02T09:49:55.476Z,45.60
2023-03-02T09:52:40.997Z,41.22
2023-03-02T09:55:23.177Z,43.20
2023-03-02T09:57:51.238Z,41.03
2023-03-02T10:00:46.791Z,42.95
2023-03-02T10:03:34.827Z,43.17
2023-03-02T10:06:02.090Z,45.38
2023-03-02T10:08:35.446Z,43.58
2023-03-02T10:11:20.859Z,51.83
2023-03-02T10:13:50.897Z,43.40
2023-03-02T10:16:57.703Z,43.03
2023-03-02T10:19:32.461Z,47.92
2023-03-02T10:22:07.186Z,38.13
2023-03-02T10:24:54.828Z,45.47
2023-03-02T10:27:34.378Z,39.70
2023-03-02T10:30:31.093Z,42.17
2023-03-02T10:33:11.830Z,47.42
2023-03-02T10:35:46.170Z,49.42
2023-03-02T10:38:17.456Z,43.87
2023-03-02T10:40:50.635Z,36.33
2023-03-02T10:43:19.843Z,38.25
2023-03-02T10:45:58.911Z,31.40
2023-03-02T10:48:26.333Z,30.23
2023-03-02T10:50:55.491Z,24.98
2023-03-02T10:53:22.873Z,31.23
2023-03-02T10:55:56.228Z,32.03
2023-03-02T10:58:33.877Z,35.85
2023-03-02T11:01:02.672Z,31.98
2023-03-02T11:03:31.195Z,36.28
2023-03-02T11:06:10.484Z,27.75
2023-03-02T11:08:37.662Z,31.33
2023-03-02T11:11:05.325Z,32.42
2023-03-02T11:13:36.277Z,27.95
2023-03-02T11:16:19.571Z,28.65
2023-03-02T11:19:13.906Z,30.80
2023-03-02T11:21:44.082Z,30.13
2023-03-02T11:24:18.606Z,30.00
2023-03-02T11:26:48.160Z,28.02
2023-03-02T11:29:24.941Z,21.17
2023-03-02T11:32:17.538Z,23.08
2023-03-02T11:34:54.585Z,27.08
2023-03-02T11:37:45.120Z,21.70
2023-03-02T11:40:34.182Z,12.77
2023-03-02T11:43:07.025Z,14.25
2023-03-02T11:45:43.625Z,12.52
2023-03-02T11:48:20.024Z,13.82
2023-03-02T11:51:04.930Z,15.05
2023-03-02T11:54:04.869Z,12.13
2023-03-02T11:56:41.167Z,12.27
2023-03-02T11:59:18.491Z,12.57
2023-03-02T12:01:49.245Z,14.88
2023-03-02T12:04:37.409Z,17.65
2023-03-02T12:07:23.342Z,14.00
2023-03-02T12:10:31.005Z,15.57
2023-03-02T12:13:18.715Z,17.67
2023-03-02T12:15:53.120Z,16.70
2023-03-02T12:18:23.154Z,16.80
2023-03-02T12:21:14.085Z,18.27
2023-03-02T12:23:51.542Z,16.45
2023-03-02T12:26:36.138Z,19.52
2023-03-02T12:29:33.684Z,18.65
2023-03-02T12:32:24.845Z,18.55
2023-03-02T12:35:12.248Z,22.15
2023-03-02T12:38:03.268Z,21.60
2023-03-02T12:41:25.671Z,16.95
2023-03-02T12:44:40.116Z,23.23
2023-03-02T12:47:27.710Z,21.63
2023-03-02T12:50:20.080Z,21.67
2023-03-02T12:53:18.367Z,21.48
2023-03-02T12:55:47.542Z,21.42
2023-03-02T12:58:31.459Z,23.70
2023-03-02T13:01:03.814Z,20.10
2023-03-02T13:03:44.890Z,20.52
2023-03-02T13:06:19.610Z,22.88
2023-03-02T13:08:53.640Z,20.50
2023-03-02T13:11:28.619Z,21.55
2023-03-02T13:13:56.461Z,18.85
2023-03-02T13:16:26.602Z,22.67
2023-03-02T13:18:59.323Z,21.52
2023-03-02T13:21:40.090Z,25.42
2023-03-02T13:24:44.357Z,22.67
2023-03-02T13:27:20.052Z,25.60
2023-03-02T13:29:48.782Z,21.23
2023-03-02T13:32:25.352Z,25.45
2023-03-02T13:34:58.369Z,25.55
2023-03-02T13:37:46.378Z,23.02
2023-03-02T13:40:22.599Z,20.42
2023-03-02T13:42:53.717Z,22.15
2023-03-02T13:45:32.377Z,28.50
2023-03-02T13:48:15.422Z,28.58
2023-03-02T13:50:57.666Z,30.40
2023-03-02T13:53:33.072Z,27.30
2023-03-02T13:58:29.726Z,29.02
2023-03-02T14:00:56.969Z,26.25
2023-03-02T14:03:27.534Z,23.58
2023-03-02T14:05:57.503Z,24.02
2023-03-02T14:08:25.109Z,25.67
2023-03-02T14:10:57.363Z,24.35
2023-03-02T14:13:34.841Z,24.42
2023-03-02T14:16:31.594Z,28.08
2023-03-02T14:18:58.652Z,25.35
2023-03-02T14:22:10.644Z,27.27
2023-03-02T14:24:47.975Z,22.90
2023-03-02T14:27:18.754Z,22.30
2023-03-02T14:29:49.745Z,28.40
2023-03-02T14:32:17.441Z,26.20
2023-03-02T14:34:44.606Z,23.38
2023-03-02T14:37:16.198Z,25.10
2023-03-02T14:39:54.933Z,25.15
2023-03-02T14:42:23.778Z,23.33
2023-03-02T14:44:52.054Z,20.80
2023-03-02T14:47:19.706Z,24.27
2023-03-02T14:49:49.274Z,18.60
2023-03-02T14:52:34.814Z,18.80
2023-03-02T14:55:12.345Z,18.10
2023-03-02T14:58:04.669Z,18.30
2023-03-02T15:03:57.018Z,17.65
2023-03-02T15:06:34.584Z,17.27
2023-03-02T15:09:08.432Z,17.00
2023-03-02T15:14:20.618Z,15.52
2023-03-02T15:17:25.836Z,17.48
2023-03-02T15:19:59.654Z,21.48
2023-03-02T15:22:27.122Z,17.40
2023-03-02T15:25:57.045Z,19.20
2023-03-02T15:36:02.449Z,16.42
2023-03-02T15:38:58.158Z,13.40
2023-03-02T15:41:23.587Z,20.35
2023-03-02T15:43:56.962Z,22.30
2023-03-02T15:47:13.866Z,18.88
2023-03-02T15:51:05.784Z,17.23
2023-03-02T15:54:53.724Z,15.13
2023-03-02T15:57:48.710Z,20.27
2023-03-02T16:08:20.539Z,21.35
2023-03-02T16:11:11.897Z,19.55
2023-03-02T16:14:05.095Z,17.13
2023-03-02T16:16:32.090Z,18.95
2023-03-02T16:19:18.495Z,18.75
2023-03-02T16:21:47.007Z,18.88
2023-03-02T16:24:19.053Z,21.20
2023-03-02T16:26:46.273Z,23.23
2023-03-02T16:29:14.244Z,19.75
2023-03-02T16:31:42.364Z,26.77
2023-03-02T16:34:10.199Z,20.45
2023-03-02T16:36:39.968Z,25.33
2023-03-02T16:39:08.783Z,23.13
2023-03-02T16:41:38.029Z,23.75
2023-03-02T16:44:05.775Z,21.52
2023-03-02T16:46:39.310Z,18.30
2023-03-02T16:49:07.133Z,18.80
2023-03-02T16:51:34.882Z,20.02
2023-03-02T16:54:02.436Z,18.92
2023-03-02T16:56:30.171Z,19.17
2023-03-02T16:58:59.841Z,16.90
2023-03-02T17:01:28.158Z,20.55
2023-03-02T17:03:56.205Z,20.70
2023-03-02T17:06:24.495Z,19.35
2023-03-02T17:08:52.135Z,15.90
2023-03-02T17:11:20.037Z,17.80
2023-03-02T17:13:47.200Z,20.73
2023-03-02T17:16:16.078Z,18.98
2023-03-02T17:18:46.780Z,18.15
2023-03-02T17:21:16.408Z,16.67
2023-03-02T17:23:44.542Z,16.52
2023-03-02T17:26:11.788Z,20.50
2023-03-02T17:28:39.276Z,18.13
2023-03-02T17:31:07.040Z,18.92
2023-03-02T17:33:34.750Z,20.10
2023-03-02T17:36:09.385Z,17.17
2023-03-02T17:38:36.907Z,16.58
2023-03-02T17:41:06.058Z,19.42
2023-03-02T17:43:36.062Z,18.60
2023-03-02T17:46:25.678Z,16.83
2023-03-02T17:48:58.565Z,16.48
2023-03-02T17:51:28.030Z,18.70
2023-03-02T17:53:56.228Z,17.08
2023-03-02T17:56:26.773Z,20.80
2023-03-02T17:59:00.765Z,16.25
2023-03-02T18:01:29.412Z,17.30
2023-03-02T18:03:56.870Z,16.15
2023-03-02T18:06:24.674Z,16.85
2023-03-02T18:08:53.105Z,20.80
2023-03-02T18:11:24.079Z,18.73
2023-03-02T18:13:57.221Z,23.60
2023-03-02T18:16:27.836Z,18.15
2023-03-02T18:18:57.207Z,20.10
2023-03-02T18:21:24.227Z,20.73
2023-03-02T18:23:51.426Z,17.92
2023-03-02T18:26:18.693Z,19.02
2023-03-02T18:28:45.641Z,23.08
2023-03-02T18:31:15.922Z,23.92
2023-03-02T18:33:43.021Z,21.38
2023-03-02T18:36:10.375Z,28.50
2023-03-02T18:38:38.108Z,24.70
2023-03-02T18:41:08.168Z,22.05
2023-03-02T18:43:40.218Z,20.48
2023-03-02T18:46:10.389Z,24.95
2023-03-02T18:48:39.498Z,22.63
2023-03-02T18:51:06.436Z,22.00
2023-03-02T18:53:33.951Z,26.13
2023-03-02T18:56:00.851Z,22.05
2023-03-02T18:58:27.774Z,20.88
2023-03-02T19:00:54.762Z,23.60
2023-03-02T19:03:22.343Z,23.95
2023-03-02T19:05:49.363Z,27.58
2023-03-02T19:08:16.349Z,26.10
2023-03-02T19:10:43.275Z,24.25
2023-03-02T19:13:11.904Z,32.30
2023-03-02T19:15:40.077Z,25.23
2023-03-02T19:18:07.305Z,29.30
2023-03-02T19:20:34.692Z,27.83
2023-03-02T19:23:01.937Z,29.80
2023-03-02T19:25:29.074Z,33.15
2023-03-02T19:27:56.547Z,32.47
2023-03-02T19:30:26.860Z,33.47
2023-03-02T19:32:54.809Z,30.20
2023-03-02T19:35:25.701Z,29.77
2023-03-02T19:37:54.555Z,33.78
2023-03-02T19:40:24.791Z,38.97
2023-03-02T19:42:53.215Z,30.88
2023-03-02T19:45:27.288Z,36.10
2023-03-02T19:47:57.489Z,35.67
2023-03-02T19:50:26.475Z,37.33
2023-03-02T19:52:54.936Z,31.20
2023-03-02T19:55:24.236Z,33.65
2023-03-02T19:57:59.452Z,31.20
2023-03-02T20:00:29.835Z,35.90
2023-03-02T20:02:57.819Z,39.53
2023-03-02T20:05:27.484Z,34.60
2023-03-02T20:07:55.034Z,34.88
2023-03-02T20:10:52.522Z,33.80
2023-03-02T20:13:19.557Z,37.30
2023-03-02T20:15:47.910Z,40.30
2023-03-02T20:18:19.022Z,37.30
2023-03-02T20:20:47.098Z,39.70
2023-03-02T20:23:15.083Z,38.08
2023-03-02T20:25:42.434Z,40.47
2023-03-02T20:28:12.992Z,36.72
2023-03-02T20:30:51.407Z,41.72
2023-03-02T20:33:22.471Z,41.35
2023-03-02T20:35:50.940Z,40.10
2023-03-02T20:38:43.617Z,41.35
2023-03-02T20:41:12.256Z,42.45
2023-03-02T20:43:40.861Z,39.38
2023-03-02T20:46:11.624Z,42.38
2023-03-02T20:48:38.817Z,36.97
2023-03-02T20:51:06.022Z,35.53
2023-03-02T20:53:33.592Z,34.92
2023-03-02T20:56:01.511Z,35.78
2023-03-02T20:58:28.891Z,39.95
2023-03-02T21:00:56.246Z,34.88
2023-03-02T21:03:23.171Z,40.25
2023-03-02T21:05:50.118Z,43.70
2023-03-02T21:08:17.160Z,48.90
2023-03-02T21:10:44.626Z,51.45
2023-03-02T21:13:12.218Z,50.35
2023-03-02T21:15:41.065Z,44.97
2023-03-02T21:18:08.134Z,40.88
2023-03-02T21:20:35.914Z,50.42
2023-03-02T21:23:03.376Z,55.30
2023-03-02T21:25:30.327Z,53.15
2023-03-02T21:27:57.562Z,47.33
2023-03-02T21:30:30.647Z,53.58
2023-03-02T21:32:57.850Z,55.92
2023-03-02T21:35:24.856Z,48.08
2023-03-02T21:37:57.143Z,56.17
2023-03-02T21:40:31.333Z,56.70
2023-03-02T21:43:00.366Z,50.90
2023-03-02T21:45:27.681Z,50.88
2023-03-02T21:47:55.068Z,48.80
2023-03-02T21:50:27.030Z,48.78
2023-03-02T21:52:55.525Z,45.45
2023-03-02T21:55:22.786Z,48.20
2023-03-02T21:57:49.690Z,45.80
2023-03-02T22:00:37.442Z,51.00
2023-03-02T22:03:05.601Z,44.85
2023-03-02T22:05:33.895Z,47.13
2023-03-02T22:08:01.100Z,40.30
2023-03-02T22:10:57.266Z,47.65
2023-03-02T22:16:09.347Z,52.80
2023-03-02T22:18:36.835Z,47.85
2023-03-02T22:21:36.843Z,48.45
2023-03-02T22:24:09.539Z,51.17
2023-03-02T22:26:58.845Z,58.53
2023-03-02T22:29:41.134Z,61.00
2023-03-02T22:32:26.267Z,49.03
2023-03-02T22:35:00.288Z,61.08
2023-03-02T22:37:35.132Z,57.83
2023-03-02T22:40:26.335Z,56.75
2023-03-02T22:43:30.827Z,57.10
2023-03-02T22:46:20.717Z,57.22
2023-03-02T22:48:51.701Z,54.90
2023-03-02T22:51:27.802Z,58.95
2023-03-02T22:53:59.397Z,61.53
2023-03-02T22:56:32.229Z,54.35
2023-03-02T22:59:14.338Z,63.35
2023-03-02T23:01:44.946Z,59.72
2023-03-02T23:04:22.719Z,57.38
2023-03-02T23:06:56.385Z,65.68
2023-03-02T23:09:31.348Z,64.03
2023-03-02T23:12:04.925Z,69.78
2023-03-02T23:14:54.305Z,67.10
2023-03-02T23:17:41.446Z,72.72
2023-03-02T23:20:13.291Z,59.67
2023-03-02T23:22:40.448Z,75.00
2023-03-02T23:25:08.756Z,77.32
2023-03-02T23:27:36.133Z,104.50
2023-03-02T23:30:04.169Z,109.53
2023-03-02T23:32:31.122Z,97.85
2023-03-02T23:34:57.988Z,93.93
2023-03-02T23:37:25.037Z,96.38
2023-03-02T23:39:52.454Z,100.68
2023-03-02T23:42:19.509Z,101.47
2023-03-02T23:44:46.414Z,99.30
2023-03-02T23:47:13.852Z,96.70
2023-03-02T23:49:40.863Z,104.55
2023-03-02T23:52:07.717Z,87.15
2023-03-02T23:54:34.728Z,83.20
2023-03-02T23:57:01.579Z,98.30
2023-03-02T23:59:28.540Z,99.57
